Impacts METAR Board
IDs:

KSFO - San Francisco Intl, CA, US

Updated at: 0200 UTC 24 Apr 2019
Potential Impact None Slight Moderate High
Time 23/14Z 23/15Z 23/16Z 23/17Z 23/18Z 23/19Z 23/20Z 23/21Z 23/22Z 23/23Z 24/00Z 24/01Z 24/02Z
Temp56 61 64 66 66 67 74 84 87 85 84 84 79
Dewpt47 49 52 54 56 58 56 51 52 51 48 47 49
Altim30.00 30.01 30.01 30.02 30.01 30.00 29.98 29.96 29.95 29.93 29.93 29.91 29.90
VIS10 10 10 10 10 10 10 10 10 10 10 10 10
CIG-- -- -- -- 200 200 -- -- -- -- -- -- --
CoverFEWFEWFEWFEWBKNBKNSCTCLRFEWSCTSCTSCTSCT
FltCatVFRVFRVFRVFRVFRVFRVFRVFRVFRVFRVFRVFRVFR
WX--------------------------
WDir290020504040800300280290290290
WSpd3 0 4 4 5 4 3 0 10 12 14 10 8
WGst-- -- -- -- -- -- -- -- -- -- -- -- --
Raw hourly METARs
KSFO 231356Z 29003KT 10SM FEW200 13/08 A3000 RMK AO2 SLP158 T01330083
KSFO 231456Z 00000KT 10SM FEW200 16/09 A3001 RMK AO2 SLP163 T01610094 53010
KSFO 231556Z 02004KT 10SM FEW200 18/11 A3001 RMK AO2 SLP162 T01780111
KSFO 231656Z 05004KT 10SM FEW200 19/12 A3002 RMK AO2 SLP164 T01890122
KSFO 231756Z 04005KT 10SM BKN200 19/13 A3001 RMK AO2 SLP161 T01890133 10189 20128 58002
KSFO 231856Z 04004KT 10SM BKN200 19/14 A3000 RMK AO2 SLP158 T01940144
KSFO 231956Z 08003KT 10SM SCT200 23/13 A2998 RMK AO2 SLP151 T02330133
KSFO 232056Z 00000KT 10SM CLR 29/11 A2996 RMK AO2 SLP146 T02890106 58015
KSFO 232156Z 30010KT 10SM FEW200 31/11 A2995 RMK AO2 SLP141 T03060111 $
KSFO 232256Z 28012KT 10SM SCT200 29/11 A2993 RMK AO2 SLP136 T02940106 $
KSFO 232356Z 29014KT 10SM SCT200 29/09 A2993 RMK AO2 SLP134 T02890089 10311 20183 56013
KSFO 240056Z 29010KT 10SM SCT200 29/08 A2991 RMK AO2 SLP129 T02890083
KSFO 240156Z 29008KT 10SM SCT200 26/09 A2990 RMK AO2 SLP125 T02610094



Page loaded:  02:48 UTC  |   07:48 PM Pacific  |   08:48 PM Mountain  |   09:48 PM Central  |   10:48 PM Eastern

 

ADVISORIES

FORECASTS

FORECASTS

OBSERVATIONS

USER TOOLS

ABOUT US